createdAt,value
2023-03-11T00:00:48.703Z,99653.91
2023-03-11T00:04:53.250Z,99641.97
2023-03-11T00:08:56.363Z,99644.00
2023-03-11T00:12:59.899Z,99648.06
2023-03-11T00:17:02.962Z,99648.44
2023-03-11T00:21:16.081Z,99649.28
2023-03-11T00:25:20.300Z,99652.16
2023-03-11T00:29:23.442Z,99656.88
2023-03-11T00:33:26.935Z,99664.13
2023-03-11T00:37:31.472Z,99659.59
2023-03-11T00:41:35.162Z,99662.09
2023-03-11T00:45:38.404Z,99666.13
2023-03-11T00:49:41.600Z,99673.91
2023-03-11T00:53:46.226Z,99679.31
2023-03-11T00:57:52.333Z,99676.47
2023-03-11T01:01:55.522Z,99689.78
2023-03-11T01:05:58.659Z,99688.44
2023-03-11T01:10:03.257Z,99692.84
2023-03-11T01:14:09.081Z,99697.97
2023-03-11T01:18:12.512Z,99699.34
2023-03-11T01:22:15.591Z,99711.78
2023-03-11T01:26:20.126Z,99716.31
2023-03-11T01:30:25.883Z,99720.88
2023-03-11T01:34:29.010Z,99717.00
2023-03-11T01:38:32.616Z,99724.25
2023-03-11T01:42:37.442Z,99727.63
2023-03-11T01:47:14.729Z,99733.50
2023-03-11T01:51:24.926Z,99742.41
2023-03-11T01:55:29.656Z,99748.47
2023-03-11T01:59:38.989Z,99740.91
2023-03-11T02:03:42.870Z,99742.06
2023-03-11T02:07:46.591Z,99746.44
2023-03-11T02:11:53.736Z,99746.44
2023-03-11T02:16:00.759Z,99744.06
2023-03-11T02:20:15.439Z,99741.56
2023-03-11T02:24:25.499Z,99731.28
2023-03-11T02:28:33.212Z,99737.34
2023-03-11T02:32:36.730Z,99741.56
2023-03-11T02:36:48.022Z,99746.06
2023-03-11T02:40:56.714Z,99739.00
2023-03-11T02:45:05.332Z,99746.44
2023-03-11T02:49:09.462Z,99735.69
2023-03-11T02:53:14.713Z,99734.66
2023-03-11T02:57:18.154Z,99744.75
2023-03-11T03:01:24.271Z,99746.09
2023-03-11T03:05:27.857Z,99737.13
2023-03-11T03:09:37.089Z,99748.06
2023-03-11T03:13:40.359Z,99752.25
2023-03-11T03:17:43.605Z,99756.47
2023-03-11T03:21:47.141Z,99760.97
2023-03-11T03:25:51.677Z,99767.88
2023-03-11T03:29:55.891Z,99765.84
2023-03-11T03:33:59.106Z,99763.50
2023-03-11T03:38:03.001Z,99778.59
2023-03-11T03:42:08.344Z,99781.59
2023-03-11T03:46:15.990Z,99789.31
2023-03-11T03:50:23.482Z,99793.16
2023-03-11T03:54:28.501Z,99794.69
2023-03-11T03:58:33.676Z,99799.34
2023-03-11T04:02:37.114Z,99815.28
2023-03-11T04:06:40.258Z,99807.25
2023-03-11T04:10:44.034Z,99814.41
2023-03-11T04:14:48.918Z,99823.78
2023-03-11T04:18:52.605Z,99822.78
2023-03-11T04:22:57.164Z,99826.44
2023-03-11T04:27:01.088Z,99827.16
2023-03-11T04:31:06.338Z,99829.66
2023-03-11T04:35:10.841Z,99827.47
2023-03-11T04:39:14.102Z,99836.53
2023-03-11T04:43:19.603Z,99833.06
2023-03-11T04:47:24.044Z,99833.56
2023-03-11T04:51:27.525Z,99841.69
2023-03-11T04:55:30.944Z,99842.03
2023-03-11T04:59:34.185Z,99837.34
2023-03-11T05:03:39.065Z,99850.66
2023-03-11T05:07:43.018Z,99854.47
2023-03-11T05:11:47.077Z,99849.47
2023-03-11T05:15:53.436Z,99854.97
2023-03-11T05:19:58.586Z,99861.59
2023-03-11T05:24:07.903Z,99870.00
2023-03-11T05:28:11.022Z,99873.69
2023-03-11T05:32:20.360Z,99878.75
2023-03-11T05:36:26.408Z,99875.38
2023-03-11T05:40:29.888Z,99878.41
2023-03-11T05:44:33.391Z,99883.09
2023-03-11T05:48:37.518Z,99893.75
2023-03-11T05:52:42.313Z,99895.94
2023-03-11T05:56:46.670Z,99900.81
2023-03-11T06:00:50.507Z,99913.34
2023-03-11T06:04:53.874Z,99921.03
2023-03-11T06:08:58.882Z,99927.78
2023-03-11T06:13:04.784Z,99933.78
2023-03-11T06:17:12.688Z,99933.59
2023-03-11T06:21:18.937Z,99927.78
2023-03-11T06:25:23.413Z,99939.75
2023-03-11T06:29:26.894Z,99935.47
2023-03-11T06:33:30.941Z,99944.72
2023-03-11T06:37:37.032Z,99951.59
2023-03-11T06:41:42.120Z,99952.78
2023-03-11T06:45:47.452Z,99960.00
2023-03-11T06:49:51.488Z,99973.78
2023-03-11T06:53:55.545Z,99988.13
2023-03-11T06:58:01.205Z,99996.03
2023-03-11T07:02:05.312Z,100001.34
2023-03-11T07:06:13.730Z,100014.28
2023-03-11T07:10:17.179Z,100015.34
2023-03-11T07:14:21.962Z,100023.09
2023-03-11T07:18:29.184Z,100027.59
2023-03-11T07:22:32.860Z,100027.03
2023-03-11T07:26:36.818Z,100037.59
2023-03-11T07:30:41.991Z,100037.78
2023-03-11T07:34:45.009Z,100040.25
2023-03-11T07:38:48.769Z,100042.03
2023-03-11T07:42:52.056Z,100045.78
2023-03-11T07:46:58.460Z,100020.19
2023-03-11T07:51:03.316Z,100005.78
2023-03-11T07:55:07.231Z,99988.41
2023-03-11T07:59:10.570Z,99996.19
2023-03-11T08:03:15.165Z,100002.16
2023-03-11T08:07:18.401Z,100005.47
2023-03-11T08:11:23.078Z,100010.81
2023-03-11T08:15:26.261Z,100002.34
2023-03-11T08:19:30.915Z,100006.75
2023-03-11T08:23:34.762Z,100012.69
2023-03-11T08:27:39.138Z,100006.63
2023-03-11T08:31:42.397Z,100011.50
2023-03-11T08:35:46.958Z,100012.00
2023-03-11T08:39:50.208Z,100021.44
2023-03-11T08:43:53.377Z,100021.22
2023-03-11T08:47:56.676Z,100027.25
2023-03-11T08:52:02.383Z,100034.22
2023-03-11T08:56:05.911Z,100023.47
2023-03-11T09:00:12.702Z,100026.69
2023-03-11T09:04:16.161Z,100024.09
2023-03-11T09:08:20.798Z,100020.31
2023-03-11T09:12:23.958Z,100025.84
2023-03-11T09:16:27.161Z,100037.69
2023-03-11T09:20:30.284Z,100036.97
2023-03-11T09:24:36.730Z,100038.97
2023-03-11T09:28:40.760Z,100040.81
2023-03-11T09:32:43.933Z,100039.84
2023-03-11T09:36:47.652Z,100054.94
2023-03-11T09:41:01.677Z,100050.56
2023-03-11T09:45:13.077Z,100045.22
2023-03-11T09:49:23.728Z,100053.06
2023-03-11T09:53:36.047Z,100056.28
2023-03-11T09:57:40.727Z,100054.25
2023-03-11T10:01:46.873Z,100059.69
2023-03-11T10:05:51.513Z,100068.16
2023-03-11T10:09:57.120Z,100075.94
2023-03-11T10:14:12.700Z,100088.75
2023-03-11T10:18:29.440Z,100093.66
2023-03-11T10:22:39.296Z,100082.22
2023-03-11T10:26:46.441Z,100080.19
2023-03-11T10:30:55.634Z,100081.03
2023-03-11T10:35:05.228Z,100088.75
2023-03-11T10:39:11.880Z,100084.44
2023-03-11T10:43:18.474Z,100086.59
2023-03-11T10:47:25.389Z,100076.03
2023-03-11T10:51:35.194Z,100077.16
2023-03-11T10:55:47.640Z,100088.59
2023-03-11T10:59:52.352Z,100086.25
2023-03-11T11:03:59.507Z,100090.56
2023-03-11T11:08:08.505Z,100089.59
2023-03-11T11:12:15.927Z,100111.69
2023-03-11T11:16:21.496Z,100113.44
2023-03-11T11:20:27.584Z,100113.00
2023-03-11T11:24:31.338Z,100107.38
2023-03-11T11:28:35.446Z,100096.50
2023-03-11T11:32:38.778Z,100100.88
2023-03-11T11:36:43.280Z,100095.53
2023-03-11T11:40:47.051Z,100092.59
2023-03-11T11:44:55.335Z,100092.91
2023-03-11T11:49:07.518Z,100099.94
2023-03-11T11:53:26.145Z,100092.50
2023-03-11T11:57:29.779Z,100097.25
2023-03-11T12:01:41.499Z,100104.13
2023-03-11T12:05:48.848Z,100095.91
2023-03-11T12:10:12.990Z,100092.13
2023-03-11T12:14:31.065Z,100099.19
2023-03-11T12:18:39.135Z,100102.91
2023-03-11T12:23:00.459Z,100102.81
2023-03-11T12:27:16.544Z,100091.38
2023-03-11T12:31:21.096Z,100092.75
2023-03-11T12:35:27.722Z,100091.69
2023-03-11T12:39:32.738Z,100092.53
2023-03-11T12:44:03.528Z,100091.19
2023-03-11T12:48:34.953Z,100094.47
2023-03-11T12:52:54.269Z,100101.28
2023-03-11T12:57:00.057Z,100087.88
2023-03-11T13:01:46.767Z,100088.25
2023-03-11T13:06:01.626Z,100089.69
2023-03-11T13:10:13.482Z,100088.34
2023-03-11T13:14:30.815Z,100074.44
2023-03-11T13:18:34.130Z,100080.06
2023-03-11T13:23:16.086Z,100075.22
2023-03-11T13:27:40.301Z,100075.34
2023-03-11T13:31:52.908Z,100080.50
2023-03-11T13:36:07.381Z,100072.81
2023-03-11T13:40:29.515Z,100068.75
2023-03-11T13:44:36.362Z,100073.53
2023-03-11T13:48:45.207Z,100073.03
2023-03-11T13:52:50.463Z,100073.22
2023-03-11T13:56:59.099Z,100078.53
2023-03-11T14:01:03.633Z,100094.16
2023-03-11T14:05:08.466Z,100082.53
2023-03-11T14:09:20.468Z,100089.59
2023-03-11T14:13:26.405Z,100088.13
2023-03-11T14:17:29.530Z,100095.56
2023-03-11T14:21:32.777Z,100098.78
2023-03-11T14:25:38.478Z,100100.66
2023-03-11T14:29:43.822Z,100102.16
2023-03-11T14:33:56.161Z,100103.97
2023-03-11T14:37:59.429Z,100097.38
2023-03-11T14:42:13.750Z,100101.53
2023-03-11T14:46:23.561Z,100112.31
2023-03-11T14:50:27.852Z,100100.19
2023-03-11T14:54:34.828Z,100112.28
2023-03-11T14:58:41.499Z,100107.00
2023-03-11T15:03:03.501Z,100107.91
2023-03-11T15:07:07.220Z,100121.66
2023-03-11T15:11:22.548Z,100114.84
2023-03-11T15:15:27.940Z,100110.81
2023-03-11T15:19:34.762Z,100118.56
2023-03-11T15:23:38.041Z,100106.16
2023-03-11T15:27:41.289Z,100116.69
2023-03-11T15:31:46.768Z,100103.19
2023-03-11T15:35:51.554Z,100112.22
2023-03-11T15:39:59.514Z,100113.84
2023-03-11T15:44:04.225Z,100105.63
2023-03-11T15:48:07.438Z,100096.59
2023-03-11T15:52:12.548Z,100102.91
2023-03-11T15:56:23.418Z,100106.78
2023-03-11T16:00:26.780Z,100106.09
2023-03-11T16:04:30.280Z,100105.50
2023-03-11T16:08:34.844Z,100114.94
2023-03-11T16:12:39.274Z,100114.09
2023-03-11T16:16:42.828Z,100109.31
2023-03-11T16:20:48.891Z,100116.47
2023-03-11T16:24:54.814Z,100106.31
2023-03-11T16:29:06.143Z,100116.22
2023-03-11T16:33:16.068Z,100115.63
2023-03-11T16:37:21.474Z,100114.53
2023-03-11T16:41:25.974Z,100116.78
2023-03-11T16:45:29.286Z,100116.78
2023-03-11T16:49:32.482Z,100119.25
2023-03-11T16:53:35.573Z,100132.28
2023-03-11T16:57:40.092Z,100123.34
2023-03-11T17:01:43.583Z,100118.03
2023-03-11T17:05:46.862Z,100117.75
2023-03-11T17:09:50.009Z,100129.47
2023-03-11T17:14:00.601Z,100117.56
2023-03-11T17:18:09.550Z,100129.44
2023-03-11T17:22:12.791Z,100132.09
2023-03-11T17:26:18.162Z,100129.03
2023-03-11T17:30:35.910Z,100126.56
2023-03-11T17:34:39.341Z,100122.41
2023-03-11T17:38:42.468Z,100126.81
2023-03-11T17:42:45.634Z,100114.56
2023-03-11T17:46:50.051Z,100124.03
2023-03-11T17:50:53.183Z,100117.13
2023-03-11T17:54:57.120Z,100118.63
2023-03-11T17:59:00.492Z,100133.88
2023-03-11T18:03:05.090Z,100134.44
2023-03-11T18:07:08.500Z,100140.28
2023-03-11T18:11:16.413Z,100143.88
2023-03-11T18:15:22.761Z,100147.13
2023-03-11T18:19:27.435Z,100140.06
2023-03-11T18:23:33.145Z,100131.84
2023-03-11T18:27:36.591Z,100127.81
2023-03-11T18:31:40.715Z,100127.81
2023-03-11T18:35:45.920Z,100132.38
2023-03-11T18:39:48.937Z,100139.19
2023-03-11T18:43:53.383Z,100149.66
2023-03-11T18:47:56.513Z,100158.09
2023-03-11T18:52:01.092Z,100150.00
2023-03-11T18:56:11.963Z,100145.78
2023-03-11T19:00:16.736Z,100158.78
2023-03-11T19:04:19.928Z,100159.63
2023-03-11T19:08:26.818Z,100166.84
2023-03-11T19:12:32.526Z,100158.41
2023-03-11T19:16:35.700Z,100168.50
2023-03-11T19:20:39.117Z,100160.56
2023-03-11T19:24:43.743Z,100156.34
2023-03-11T19:28:47.607Z,100181.91
2023-03-11T19:32:52.999Z,100166.44
2023-03-11T19:36:56.179Z,100177.50
2023-03-11T19:41:06.074Z,100180.63
2023-03-11T19:45:09.949Z,100194.44
2023-03-11T19:49:13.035Z,100189.31
2023-03-11T19:53:16.968Z,100186.44
2023-03-11T19:57:21.395Z,100194.06
2023-03-11T20:01:25.351Z,100190.91
2023-03-11T20:05:28.402Z,100197.31
2023-03-11T20:09:32.746Z,100197.13
2023-03-11T20:13:38.304Z,100202.66
2023-03-11T20:17:41.566Z,100205.38
2023-03-11T20:21:45.956Z,100196.47
2023-03-11T20:25:49.318Z,100196.63
2023-03-11T20:29:53.970Z,100208.09
2023-03-11T20:33:58.266Z,100200.69
2023-03-11T20:38:02.873Z,100194.97
2023-03-11T20:42:06.515Z,100196.84
2023-03-11T20:46:13.206Z,100184.59
2023-03-11T20:50:16.868Z,100185.78
2023-03-11T20:54:20.234Z,100181.03
2023-03-11T20:58:23.719Z,100170.47
2023-03-11T21:02:30.679Z,100178.22
2023-03-11T21:06:36.066Z,100176.91
2023-03-11T21:10:39.240Z,100177.59
2023-03-11T21:14:42.576Z,100169.34
2023-03-11T21:18:49.431Z,100173.22
2023-03-11T21:22:53.033Z,100174.22
2023-03-11T21:26:56.219Z,100174.56
2023-03-11T21:31:00.653Z,100167.13
2023-03-11T21:35:05.966Z,100159.72
2023-03-11T21:39:09.256Z,100154.69
2023-03-11T21:43:12.333Z,100157.41
2023-03-11T21:47:15.614Z,100149.66
2023-03-11T21:51:21.262Z,100145.75
2023-03-11T21:55:24.497Z,100150.97
2023-03-11T21:59:27.650Z,100149.28
2023-03-11T22:03:35.384Z,100153.53
2023-03-11T22:07:40.143Z,100154.69
2023-03-11T22:11:43.865Z,100152.34
2023-03-11T22:15:46.953Z,100157.94
2023-03-11T22:19:50.173Z,100160.13
2023-03-11T22:23:54.635Z,100160.78
2023-03-11T22:27:57.698Z,100161.13
2023-03-11T22:32:00.782Z,100151.69
2023-03-11T22:36:04.852Z,100147.97
2023-03-11T22:40:11.472Z,100145.41
2023-03-11T22:44:14.468Z,100140.88
2023-03-11T22:48:17.512Z,100140.34
2023-03-11T22:52:20.552Z,100151.34
2023-03-11T22:56:25.073Z,100142.91
2023-03-11T23:00:28.136Z,100148.44
2023-03-11T23:04:31.175Z,100144.25
2023-03-11T23:08:34.297Z,100145.25
2023-03-11T23:12:38.683Z,100146.63
2023-03-11T23:16:42.391Z,100145.59
2023-03-11T23:20:46.156Z,100139.00
2023-03-11T23:24:49.262Z,100132.13
2023-03-11T23:28:54.639Z,100132.44
2023-03-11T23:32:57.860Z,100134.63
2023-03-11T23:37:01.366Z,100138.34
2023-03-11T23:41:07.551Z,100128.72
2023-03-11T23:45:12.547Z,100127.88
2023-03-11T23:49:15.564Z,100122.31
2023-03-11T23:53:21.402Z,100121.78
2023-03-11T23:57:24.449Z,100124.69
